Terminal Aerodrome Forecast
Issued by NWS Huntsville, AL

Home | Current Version | Previous Version | Text Only | Print | Product List | Glossary On
Versions: 1 2 3 4 5 6 7 8 9 10 11 12 13 14 15 16 17 18 19 20 21 22 23 24 25 26 27
000
FTUS44 KHUN 250231 AAA
TAFMSL
TAF AMD
KMSL 250231Z 2503/2524 15010KT P6SM VCSH BKN060
     FM250600 15010KT P6SM OVC050
     FM251100 16010KT P6SM OVC030
     FM251800 18010KT P6SM VCSH BKN040=

USA.gov is the U.S. government's official web portal to all federal, state and local government web resources and services.